Time;durP1;ratioP1;P1;durP2;ratioP2;P2;SDS_P1;SDS_P2;PMS_P1;PMS_P2;Temp;Humidity;BMP_temperature;BMP_pressure;BME280_temperature;BME280_humidity;BME280_pressure;Samples;Min_cycle;Max_cycle;Signal;HPM_P1;HPM_P2
2021/09/21 00:00:14;;;;;;;4.33;3.93;;;;;;;12.36;73.46;101855.34;5071376;28;20313;-73
2021/09/21 00:02:41;;;;;;;5.97;3.57;;;;;;;12.35;73.22;101861.63;5072337;28;20205;-73
2021/09/21 00:05:08;;;;;;;5.40;3.80;;;;;;;12.33;73.32;101859.03;5072504;28;20291;-73
2021/09/21 00:07:36;;;;;;;5.17;3.70;;;;;;;12.31;73.71;101852.03;5071750;28;20770;-72
2021/09/21 00:10:03;;;;;;;5.57;3.63;;;;;;;12.29;73.53;101843.25;5071944;28;20225;-71
2021/09/21 00:12:30;;;;;;;4.27;3.73;;;;;;;12.27;73.72;101847.78;5071734;28;20234;-73
2021/09/21 00:14:56;;;;;;;6.37;3.80;;;;;;;12.26;73.90;101856.75;5072119;28;20228;-73
2021/09/21 00:17:23;;;;;;;6.10;4.47;;;;;;;12.23;73.69;101857.78;5071522;28;20200;-73
2021/09/21 00:19:50;;;;;;;4.40;3.73;;;;;;;12.19;73.90;101864.19;5071677;28;20237;-72
2021/09/21 00:22:17;;;;;;;5.03;4.50;;;;;;;12.15;73.85;101860.84;5071915;28;20201;-72
2021/09/21 00:24:44;;;;;;;4.67;3.97;;;;;;;12.12;74.07;101871.69;5071784;28;20569;-73
2021/09/21 00:27:11;;;;;;;5.80;4.10;;;;;;;12.08;74.25;101867.44;5071688;28;20197;-73
2021/09/21 00:29:38;;;;;;;4.77;3.90;;;;;;;12.04;74.09;101873.84;5071581;28;20225;-73
2021/09/21 00:32:05;;;;;;;6.57;4.63;;;;;;;12.01;74.24;101873.13;5071874;28;20302;-73
2021/09/21 00:34:37;;;;;;;8.23;4.30;;;;;;;11.98;74.76;101873.31;5071735;28;20198;-73
2021/09/21 00:37:04;;;;;;;4.70;4.23;;;;;;;11.95;74.71;101882.34;5071300;28;20217;-73
2021/09/21 00:39:31;;;;;;;5.03;4.00;;;;;;;11.93;75.08;101878.88;5071012;28;20315;-72
2021/09/21 00:42:00;;;;;;;5.33;3.93;;;;;;;11.94;75.18;101883.28;5070459;28;20294;-71
2021/09/21 00:44:27;;;;;;;4.60;4.20;;;;;;;11.93;75.05;101886.03;5070611;28;20296;-72
2021/09/21 00:46:54;;;;;;;5.07;4.10;;;;;;;11.91;75.40;101885.22;5071213;28;20578;-72
2021/09/21 00:49:20;;;;;;;8.53;4.63;;;;;;;11.90;75.55;101892.38;5071096;28;20290;-73
2021/09/21 00:51:47;;;;;;;6.03;4.33;;;;;;;11.90;75.69;101891.50;5070873;28;20214;-72
2021/09/21 00:54:14;;;;;;;7.60;4.90;;;;;;;11.89;75.63;101895.97;5090731;28;20224;-72
2021/09/21 00:56:41;;;;;;;7.10;5.00;;;;;;;11.90;75.85;101894.19;5078911;28;20310;-72
2021/09/21 00:59:09;;;;;;;5.57;4.73;;;;;;;11.90;75.99;101891.50;5070128;28;20670;-73
2021/09/21 01:01:35;;;;;;;6.23;4.43;;;;;;;11.91;75.83;101896.78;5071208;28;20291;-72
2021/09/21 01:04:05;;;;;;;7.77;4.70;;;;;;;11.92;76.19;101903.84;5071869;28;20214;-72
2021/09/21 01:06:31;;;;;;;6.70;4.87;;;;;;;11.93;76.16;101904.72;5070533;28;20215;-71
2021/09/21 01:08:58;;;;;;;5.40;4.90;;;;;;;11.93;75.99;101891.34;5058719;28;20201;-72
2021/09/21 01:11:24;;;;;;;6.70;5.10;;;;;;;11.95;76.09;101898.34;5069972;28;20225;-72
2021/09/21 01:13:51;;;;;;;7.53;5.07;;;;;;;11.95;76.11;101889.47;5074482;28;20224;-73
2021/09/21 01:16:21;;;;;;;4.93;4.43;;;;;;;11.96;76.32;101881.41;5076771;28;20228;-71
2021/09/21 01:18:48;;;;;;;5.87;4.27;;;;;;;11.96;76.20;101876.06;5070340;28;20758;-73
2021/09/21 01:21:15;;;;;;;7.57;4.80;;;;;;;11.97;76.19;101876.94;5075746;28;20761;-73
2021/09/21 01:23:48;;;;;;;6.23;4.57;;;;;;;11.97;76.27;101872.44;5082854;28;20201;-73
2021/09/21 01:26:15;;;;;;;6.37;4.47;;;;;;;11.99;76.31;101875.03;5070973;28;20669;-73
2021/09/21 01:28:42;;;;;;;5.37;4.53;;;;;;;12.00;76.44;101866.09;5070348;28;20208;-72
2021/09/21 01:31:08;;;;;;;6.77;4.17;;;;;;;12.00;76.40;101874.09;5072934;28;20308;-73
2021/09/21 01:33:35;;;;;;;5.77;4.60;;;;;;;12.00;76.30;101877.63;5071005;28;20204;-73
2021/09/21 01:36:02;;;;;;;4.47;4.00;;;;;;;12.01;76.14;101875.81;5070280;28;20781;-73
2021/09/21 01:38:28;;;;;;;7.17;4.57;;;;;;;12.01;76.23;101875.81;5070614;28;20292;-73
2021/09/21 01:40:57;;;;;;;6.03;4.70;;;;;;;12.00;76.61;101872.28;5070265;28;20577;-73
2021/09/21 01:43:24;;;;;;;6.67;4.53;;;;;;;12.01;76.42;101868.66;5075778;28;20291;-71
2021/09/21 01:45:50;;;;;;;4.57;4.17;;;;;;;12.00;76.48;101869.59;5070802;28;20193;-72
2021/09/21 01:48:17;;;;;;;6.60;4.90;;;;;;;11.99;76.17;101869.72;5087882;28;20206;-71
2021/09/21 01:50:48;;;;;;;6.53;5.30;;;;;;;11.99;76.37;101865.22;5081331;28;20212;-72
2021/09/21 01:53:22;;;;;;;7.60;4.73;;;;;;;11.99;76.28;101875.03;5075115;28;20207;-72
2021/09/21 01:58:50;;;;;;;5.87;4.93;;;;;;;11.96;76.17;101885.88;5052026;28;20210;-73
2021/09/21 02:01:19;;;;;;;5.23;4.73;;;;;;;11.95;76.10;101876.13;5074145;28;20221;-72
2021/09/21 02:03:46;;;;;;;6.63;4.57;;;;;;;11.93;76.26;101880.69;5074877;28;20624;-73
2021/09/21 02:06:13;;;;;;;6.47;5.40;;;;;;;11.92;76.45;101892.28;5073926;28;20807;-72
2021/09/21 02:08:40;;;;;;;7.47;5.40;;;;;;;11.89;76.41;101892.44;5074670;28;20253;-73
2021/09/21 02:11:07;;;;;;;9.50;6.00;;;;;;;11.87;76.49;101886.31;5074451;28;20229;-73
2021/09/21 02:13:35;;;;;;;8.27;5.53;;;;;;;11.86;76.43;101882.78;5074326;28;20206;-73
2021/09/21 02:16:03;;;;;;;6.50;5.40;;;;;;;11.84;76.60;101895.31;5068783;28;20315;-72
2021/09/21 02:18:29;;;;;;;7.33;5.23;;;;;;;11.81;76.72;101893.69;5073256;28;20196;-72
2021/09/21 02:20:56;;;;;;;8.03;5.30;;;;;;;11.78;76.71;101887.63;5081317;28;20221;-72
2021/09/21 02:23:23;;;;;;;6.60;4.73;;;;;;;11.77;76.98;101899.25;5086863;28;20294;-73
2021/09/21 02:25:49;;;;;;;6.53;4.60;;;;;;;11.73;76.91;101895.81;5086343;28;20201;-72
2021/09/21 02:28:16;;;;;;;6.20;5.03;;;;;;;11.71;77.22;101900.38;5077067;28;20200;-73
2021/09/21 02:30:44;;;;;;;6.63;5.03;;;;;;;11.70;77.03;101895.09;5073515;28;20309;-73
2021/09/21 02:33:12;;;;;;;8.13;5.77;;;;;;;11.68;77.30;101896.97;5073929;28;20231;-72
2021/09/21 02:35:39;;;;;;;6.23;4.77;;;;;;;11.67;77.24;101903.25;5073606;28;20233;-73
2021/09/21 02:38:07;;;;;;;10.90;5.30;;;;;;;11.65;77.35;101910.47;5073468;28;20198;-72
2021/09/21 02:40:33;;;;;;;7.87;5.73;;;;;;;11.64;77.55;101912.31;5073188;28;20231;-72
2021/09/21 02:43:00;;;;;;;6.00;5.07;;;;;;;11.62;77.57;101911.50;5073790;28;20195;-72
2021/09/21 02:45:27;;;;;;;6.20;5.40;;;;;;;11.63;77.84;101907.03;5073575;28;20758;-73
2021/09/21 02:47:55;;;;;;;6.33;4.80;;;;;;;11.63;77.69;101912.38;5076046;28;20294;-73
2021/09/21 02:50:21;;;;;;;8.17;5.10;;;;;;;11.62;77.81;101903.50;5075870;28;20233;-73
2021/09/21 02:52:48;;;;;;;7.10;5.97;;;;;;;11.63;77.84;101905.22;5076821;28;20486;-72
2021/09/21 02:55:14;;;;;;;7.17;5.73;;;;;;;11.62;77.74;101895.50;5072236;28;20208;-72
2021/09/21 02:57:41;;;;;;;8.10;5.57;;;;;;;11.62;77.67;101898.16;5071712;28;20627;-72
2021/09/21 03:00:13;;;;;;;6.00;5.00;;;;;;;11.61;77.97;101899.09;5071648;28;21013;-72
2021/09/21 03:02:42;;;;;;;7.40;4.97;;;;;;;11.61;77.85;101904.44;5072729;28;20206;-73
2021/09/21 03:05:14;;;;;;;7.53;5.07;;;;;;;11.61;77.98;101901.75;5072034;28;20203;-73
2021/09/21 03:07:43;;;;;;;6.57;5.03;;;;;;;11.60;77.98;101910.72;5072468;28;20201;-71
2021/09/21 03:10:19;;;;;;;9.30;5.40;;;;;;;11.59;77.84;101908.97;5072163;28;20647;-72
2021/09/21 03:13:13;;;;;;;6.57;5.20;;;;;;;11.56;77.82;101906.44;5072758;28;20577;-72
2021/09/21 03:18:24;;;;;;;7.17;5.10;;;;;;;11.52;77.78;101912.84;5072293;28;20212;-72
2021/09/21 03:20:52;;;;;;;7.90;5.53;;;;;;;11.50;77.84;101906.72;5071738;28;20309;-73
2021/09/21 03:23:19;;;;;;;8.03;5.77;;;;;;;11.48;77.90;101901.47;5072427;28;20207;-72
2021/09/21 03:25:46;;;;;;;6.87;5.67;;;;;;;11.48;77.85;101903.25;5071505;28;20202;-72
2021/09/21 03:28:13;;;;;;;6.30;5.23;;;;;;;11.45;77.90;101895.44;5071898;28;20287;-72
2021/09/21 03:30:39;;;;;;;6.00;4.70;;;;;;;11.46;77.91;101913.16;5071651;28;20309;-72
2021/09/21 03:33:06;;;;;;;9.53;5.77;;;;;;;11.45;77.86;101909.63;5072087;28;20310;-73
2021/09/21 03:35:32;;;;;;;5.77;4.87;;;;;;;11.42;77.75;101911.56;5071312;28;20308;-72
2021/09/21 03:38:00;;;;;;;6.63;5.63;;;;;;;11.41;77.60;101916.03;5071669;28;20591;-72
2021/09/21 03:40:27;;;;;;;8.03;5.33;;;;;;;11.38;77.37;101918.84;5071655;28;20228;-72
2021/09/21 03:42:54;;;;;;;7.43;5.23;;;;;;;11.35;77.64;101918.97;5072161;28;20218;-72
2021/09/21 03:45:21;;;;;;;6.20;5.23;;;;;;;11.32;77.80;101927.13;5071407;28;20205;-72
2021/09/21 03:47:48;;;;;;;7.07;5.53;;;;;;;11.29;77.52;101926.38;5071312;28;20204;-73
2021/09/21 03:50:14;;;;;;;7.60;5.63;;;;;;;11.26;77.51;101931.91;5071207;28;20229;-71
2021/09/21 03:52:41;;;;;;;6.50;5.50;;;;;;;11.22;77.38;101935.63;5071221;28;20650;-72
2021/09/21 03:55:10;;;;;;;7.80;5.60;;;;;;;11.17;77.46;101949.16;5071598;28;20692;-72
2021/09/21 03:57:36;;;;;;;8.57;5.87;;;;;;;11.12;77.69;101945.81;5070609;28;20213;-73
2021/09/21 04:00:04;;;;;;;6.40;5.67;;;;;;;11.08;77.63;101946.94;5070938;28;20665;-72
2021/09/21 04:02:30;;;;;;;7.33;5.63;;;;;;;11.04;77.58;101948.84;5070952;28;20614;-73
2021/09/21 04:04:57;;;;;;;9.37;5.93;;;;;;;10.99;77.72;101956.19;5072062;28;20231;-72
2021/09/21 04:07:24;;;;;;;6.87;5.97;;;;;;;10.96;77.79;101966.97;5066610;28;20281;-73
2021/09/21 04:09:51;;;;;;;7.23;6.10;;;;;;;10.92;77.95;101972.53;5070386;28;20221;-72
2021/09/21 04:12:19;;;;;;;8.93;6.43;;;;;;;10.89;78.01;101962.00;5068535;28;20216;-73
2021/09/21 04:14:45;;;;;;;7.37;6.33;;;;;;;10.86;78.15;101964.78;5070543;28;20205;-72
2021/09/21 04:17:12;;;;;;;11.37;6.63;;;;;;;10.82;78.29;101966.72;5062869;28;20290;-72
2021/09/21 04:19:38;;;;;;;8.10;6.40;;;;;;;10.78;78.21;101962.44;5064389;28;20227;-73
2021/09/21 04:22:06;;;;;;;6.93;5.53;;;;;;;10.74;77.95;101964.41;5063542;28;20209;-73
2021/09/21 04:24:33;;;;;;;7.47;5.70;;;;;;;10.70;78.38;101973.44;5061625;28;20208;-72
2021/09/21 04:27:00;;;;;;;8.00;6.20;;;;;;;10.69;78.50;101970.84;5066149;28;20204;-72
2021/09/21 04:29:28;;;;;;;7.03;5.80;;;;;;;10.67;78.53;101973.59;5063534;28;20724;-72
2021/09/21 04:31:56;;;;;;;9.53;6.23;;;;;;;10.66;78.52;101968.31;5068736;28;20296;-72
2021/09/21 04:34:23;;;;;;;9.13;7.03;;;;;;;10.64;78.53;101975.50;5066704;28;20205;-72
2021/09/21 04:36:49;;;;;;;10.87;6.73;;;;;;;10.61;78.34;101980.97;5067328;28;20223;-73
2021/09/21 04:39:16;;;;;;;8.77;6.43;;;;;;;10.58;78.68;101984.59;5063226;28;20224;-72
2021/09/21 04:41:43;;;;;;;8.20;6.47;;;;;;;10.57;78.83;101982.88;5097846;22;20424;-72
2021/09/21 04:44:10;;;;;;;8.90;6.83;;;;;;;10.54;78.89;101983.03;5088833;28;20281;-71
2021/09/21 04:46:39;;;;;;;8.27;6.60;;;;;;;10.55;78.77;101986.56;5090933;28;20255;-71
2021/09/21 04:49:08;;;;;;;8.57;6.27;;;;;;;10.53;78.74;101991.94;5094161;28;20649;-71
2021/09/21 04:51:35;;;;;;;8.47;6.37;;;;;;;10.53;78.97;101988.41;5095702;28;20659;-71
2021/09/21 04:54:02;;;;;;;8.60;6.53;;;;;;;10.52;79.57;101992.00;5089314;28;20227;-71
2021/09/21 04:56:29;;;;;;;9.07;6.53;;;;;;;10.50;79.42;101984.09;5080909;28;20307;-71
2021/09/21 04:58:56;;;;;;;8.77;6.30;;;;;;;10.50;79.60;101984.09;5081667;28;20669;-71
2021/09/21 05:01:23;;;;;;;6.87;5.90;;;;;;;10.49;79.25;101974.34;5090234;28;20220;-71
2021/09/21 05:03:51;;;;;;;8.10;6.40;;;;;;;10.49;79.41;101981.47;5084765;28;20261;-71
2021/09/21 05:06:19;;;;;;;10.70;7.80;;;;;;;10.47;79.56;101972.69;5089599;28;20299;-71
2021/09/21 05:08:46;;;;;;;9.47;6.43;;;;;;;10.46;79.86;101971.81;5089784;28;20225;-71
2021/09/21 05:11:13;;;;;;;8.70;6.60;;;;;;;10.46;79.85;101974.47;5090737;28;20261;-71
2021/09/21 05:13:40;;;;;;;7.97;6.30;;;;;;;10.44;79.92;101973.69;5086400;28;20196;-71
2021/09/21 05:16:07;;;;;;;6.93;5.83;;;;;;;10.39;79.32;101973.03;5081096;28;20207;-71
2021/09/21 05:18:34;;;;;;;8.60;5.97;;;;;;;10.35;79.50;101982.06;5082171;28;20223;-72
2021/09/21 05:21:03;;;;;;;8.00;6.17;;;;;;;10.31;79.22;101985.78;5084930;28;20249;-71
2021/09/21 05:23:29;;;;;;;9.40;5.83;;;;;;;10.27;79.49;101985.03;5087664;28;20211;-71
2021/09/21 05:25:57;;;;;;;8.77;6.77;;;;;;;10.27;79.79;101982.38;5085907;28;20209;-71
2021/09/21 05:28:25;;;;;;;9.50;6.50;;;;;;;10.27;79.93;102003.66;5085177;28;20806;-71
2021/09/21 05:30:52;;;;;;;8.53;6.93;;;;;;;10.29;80.21;101990.28;5080755;28;20231;-71
2021/09/21 05:33:20;;;;;;;7.17;5.77;;;;;;;10.32;80.19;102003.47;5081383;28;20208;-71
2021/09/21 05:35:48;;;;;;;9.83;6.53;;;;;;;10.35;80.26;101998.91;5082085;28;20200;-71
2021/09/21 05:38:17;;;;;;;11.83;6.17;;;;;;;10.37;80.29;102002.38;5081255;28;20258;-71
2021/09/21 05:40:44;;;;;;;9.73;7.40;;;;;;;10.39;80.45;102013.81;5083615;28;20249;-71
2021/09/21 05:43:12;;;;;;;12.80;9.30;;;;;;;10.41;79.83;102014.63;5084446;28;20204;-72
2021/09/21 05:45:39;;;;;;;13.80;9.23;;;;;;;10.43;79.91;102007.44;5082160;28;20208;-71
2021/09/21 05:48:07;;;;;;;10.00;7.70;;;;;;;10.45;79.96;102010.03;5082359;28;20207;-71
2021/09/21 05:50:34;;;;;;;9.90;7.57;;;;;;;10.47;79.71;102026.81;5085888;28;20227;-71
2021/09/21 05:53:02;;;;;;;13.60;9.03;;;;;;;10.48;79.55;102028.56;5081010;28;20223;-71
2021/09/21 05:55:30;;;;;;;13.60;9.30;;;;;;;10.50;79.62;102021.38;5082995;28;20196;-71
2021/09/21 05:57:58;;;;;;;15.27;7.77;;;;;;;10.51;79.56;102025.78;5076554;28;20231;-71
2021/09/21 06:00:27;;;;;;;13.83;7.60;;;;;;;10.53;79.13;102021.25;5076884;28;20591;-71
2021/09/21 06:02:54;;;;;;;11.17;7.03;;;;;;;10.54;78.98;102023.00;5085975;28;20217;-72
2021/09/21 06:05:22;;;;;;;15.97;7.20;;;;;;;10.56;79.14;102026.47;5083959;28;20264;-71
2021/09/21 06:07:50;;;;;;;18.60;7.83;;;;;;;10.59;78.88;102038.75;5077774;28;20220;-72
2021/09/21 06:10:19;;;;;;;12.07;8.23;;;;;;;10.62;78.79;102042.16;5073446;28;20231;-72
2021/09/21 06:12:49;;;;;;;10.27;6.87;;;;;;;10.64;79.01;102048.31;5079275;28;20300;-72
2021/09/21 06:15:20;;;;;;;12.47;7.70;;;;;;;10.70;79.08;102047.19;5082011;28;20218;-72
2021/09/21 06:17:50;;;;;;;8.47;6.60;;;;;;;10.71;78.74;102047.13;5073793;28;20232;-72
2021/09/21 06:20:18;;;;;;;9.67;6.70;;;;;;;10.74;78.68;102041.69;5077088;28;20224;-71
2021/09/21 06:22:46;;;;;;;9.80;6.43;;;;;;;10.77;78.80;102043.31;5080317;28;20222;-71
2021/09/21 06:25:15;;;;;;;10.40;6.57;;;;;;;10.81;78.72;102052.94;5073721;28;20342;-71
2021/09/21 06:27:43;;;;;;;8.43;5.97;;;;;;;10.84;78.48;102046.59;5083317;28;20212;-71
2021/09/21 06:30:15;;;;;;;8.70;5.77;;;;;;;10.88;78.46;102045.56;5081352;28;20220;-71
2021/09/21 06:32:43;;;;;;;7.93;5.73;;;;;;;10.90;78.29;102044.56;5077572;28;20210;-71
2021/09/21 06:35:11;;;;;;;7.80;6.30;;;;;;;10.93;77.96;102039.06;5082578;28;20206;-71
2021/09/21 06:37:39;;;;;;;7.77;5.50;;;;;;;10.95;77.74;102037.22;5089559;28;20587;-71
2021/09/21 06:40:08;;;;;;;7.47;5.67;;;;;;;10.97;77.56;102051.34;5086136;28;20224;-72
2021/09/21 06:42:36;;;;;;;10.70;5.93;;;;;;;10.98;77.34;102054.88;5094831;28;20277;-72
2021/09/21 06:45:04;;;;;;;8.27;5.93;;;;;;;11.01;77.04;102060.09;5105053;28;20654;-71
2021/09/21 06:47:33;;;;;;;7.70;5.77;;;;;;;11.03;76.51;102071.56;5093848;28;20208;-72
2021/09/21 06:50:01;;;;;;;7.00;5.70;;;;;;;11.07;76.65;102075.84;5093673;28;20213;-72
2021/09/21 06:52:29;;;;;;;8.00;6.57;;;;;;;11.12;76.53;102079.16;5087286;28;20212;-72
2021/09/21 06:54:57;;;;;;;9.63;6.33;;;;;;;11.17;76.32;102090.50;5082197;28;20201;-72
2021/09/21 06:57:24;;;;;;;8.67;5.97;;;;;;;11.21;76.17;102089.44;5093082;28;20225;-71
2021/09/21 06:59:52;;;;;;;8.87;6.17;;;;;;;11.26;76.21;102075.91;5086063;28;20714;-71
2021/09/21 07:02:19;;;;;;;21.40;7.67;;;;;;;11.29;76.29;102087.28;5088878;28;20226;-71
2021/09/21 07:04:48;;;;;;;9.30;7.03;;;;;;;11.33;76.34;102088.88;5093106;28;20268;-72
2021/09/21 07:07:15;;;;;;;9.53;6.97;;;;;;;11.37;76.56;102073.63;5089355;28;20235;-72
2021/09/21 07:09:43;;;;;;;7.67;6.47;;;;;;;11.42;76.37;102082.31;5080516;28;20198;-72
2021/09/21 07:12:10;;;;;;;10.77;6.63;;;;;;;11.46;76.33;102084.75;5081803;28;20197;-71
2021/09/21 07:14:37;;;;;;;9.03;5.97;;;;;;;11.50;76.18;102074.81;5089927;28;20213;-72
2021/09/21 07:17:05;;;;;;;9.30;6.40;;;;;;;11.53;76.09;102079.16;5090039;28;21264;-73
2021/09/21 07:19:32;;;;;;;8.27;6.13;;;;;;;11.57;75.84;102086.09;5085331;28;20815;-73
2021/09/21 07:22:01;;;;;;;8.07;5.70;;;;;;;11.61;75.53;102083.22;5090800;28;20593;-73
2021/09/21 07:24:29;;;;;;;10.53;5.70;;;;;;;11.64;75.45;102101.78;5092350;28;20203;-72
2021/09/21 07:26:56;;;;;;;8.43;6.40;;;;;;;11.67;75.21;102090.94;5093128;28;20216;-71
2021/09/21 07:29:23;;;;;;;10.60;7.10;;;;;;;11.74;75.00;102096.88;5092914;28;20622;-71
2021/09/21 07:31:52;;;;;;;9.33;6.33;;;;;;;11.79;74.96;102090.44;5092767;28;20242;-70
2021/09/21 07:34:19;;;;;;;8.60;5.97;;;;;;;11.82;74.66;102098.28;5093564;28;20620;-70
2021/09/21 07:36:51;;;;;;;9.23;6.37;;;;;;;11.88;74.76;102101.59;5105629;28;20207;-70
2021/09/21 07:39:20;;;;;;;11.03;6.60;;;;;;;11.93;74.51;102104.94;5115655;28;20585;-71
2021/09/21 07:41:47;;;;;;;10.00;6.20;;;;;;;11.97;74.40;102110.06;5115526;28;20235;-70
2021/09/21 07:44:14;;;;;;;10.27;6.47;;;;;;;12.01;74.07;102113.44;5109363;28;20221;-70
2021/09/21 07:46:41;;;;;;;10.23;6.90;;;;;;;12.04;74.17;102114.19;5094512;28;20204;-70
2021/09/21 07:49:09;;;;;;;12.10;9.10;;;;;;;12.09;73.63;102121.97;5094599;28;20206;-70
2021/09/21 07:51:36;;;;;;;11.27;6.83;;;;;;;12.12;73.40;102116.50;5098381;28;20766;-70
2021/09/21 07:54:04;;;;;;;9.73;7.17;;;;;;;12.16;73.10;102124.31;5102684;28;20214;-71
2021/09/21 07:56:33;;;;;;;8.50;6.50;;;;;;;12.20;73.02;102125.00;5104390;28;20295;-70
2021/09/21 07:59:01;;;;;;;10.23;6.80;;;;;;;12.26;72.86;102132.75;5102904;28;20737;-70
2021/09/21 08:01:28;;;;;;;8.53;6.60;;;;;;;12.32;73.20;102135.16;5103592;28;20228;-70
2021/09/21 08:03:56;;;;;;;9.63;6.90;;;;;;;12.36;72.49;102123.34;5105594;28;20200;-71
2021/09/21 08:06:24;;;;;;;8.57;6.00;;;;;;;12.41;72.27;102121.34;5104109;28;20249;-70
2021/09/21 08:08:51;;;;;;;9.73;6.77;;;;;;;12.47;72.04;102120.19;5103481;28;20211;-71
2021/09/21 08:11:18;;;;;;;8.93;6.07;;;;;;;12.51;72.20;102117.31;5103544;28;20288;-70
2021/09/21 08:13:47;;;;;;;6.40;5.50;;;;;;;12.57;71.82;102120.59;5105623;28;20287;-69
2021/09/21 08:16:15;;;;;;;9.00;6.10;;;;;;;12.63;71.75;102125.66;5105373;28;20283;-70
2021/09/21 08:18:44;;;;;;;7.90;6.27;;;;;;;12.68;71.61;102126.31;5103803;28;20322;-72
2021/09/21 08:21:11;;;;;;;8.87;5.90;;;;;;;12.73;71.20;102133.13;5105010;28;20231;-73
2021/09/21 08:23:38;;;;;;;11.33;6.37;;;;;;;12.78;71.04;102133.78;5103658;28;20745;-72
2021/09/21 08:26:06;;;;;;;7.67;5.70;;;;;;;12.82;71.02;102115.78;5103021;28;20268;-71
2021/09/21 08:28:33;;;;;;;7.07;5.73;;;;;;;12.88;70.62;102133.34;5096932;28;20192;-71
2021/09/21 08:31:02;;;;;;;10.57;6.23;;;;;;;12.92;70.24;102125.06;5102795;28;20458;-70
2021/09/21 08:33:29;;;;;;;8.47;5.53;;;;;;;12.98;70.09;102130.13;5101897;28;20235;-71
2021/09/21 08:35:57;;;;;;;7.07;5.57;;;;;;;13.03;69.79;102136.13;5101185;28;20206;-71
2021/09/21 08:38:24;;;;;;;9.23;6.30;;;;;;;13.09;69.03;102132.25;5096475;28;20229;-71
2021/09/21 08:40:51;;;;;;;11.30;6.07;;;;;;;13.16;68.61;102139.94;5092691;28;20240;-70
2021/09/21 08:43:18;;;;;;;9.37;5.70;;;;;;;13.25;68.51;102145.78;5096071;28;20228;-71
2021/09/21 08:45:46;;;;;;;7.97;6.10;;;;;;;13.32;68.33;102145.38;5091652;28;20216;-71
2021/09/21 08:48:14;;;;;;;7.60;5.87;;;;;;;13.42;67.71;102148.47;5093736;28;20284;-71
2021/09/21 08:50:42;;;;;;;8.27;5.60;;;;;;;13.47;67.85;102146.41;5090498;28;20224;-71
2021/09/21 08:53:09;;;;;;;7.07;5.90;;;;;;;13.55;66.76;102145.06;5090856;28;20203;-72
2021/09/21 08:55:36;;;;;;;10.60;6.43;;;;;;;13.64;67.17;102148.19;5086866;28;20204;-72
2021/09/21 08:58:04;;;;;;;9.37;6.83;;;;;;;13.72;66.80;102143.31;5084149;28;20220;-71
2021/09/21 09:00:34;;;;;;;9.70;6.23;;;;;;;13.81;66.05;102149.03;5084386;28;20315;-70
2021/09/21 09:03:05;;;;;;;8.00;6.10;;;;;;;13.90;65.65;102153.06;5083794;28;20215;-71
2021/09/21 09:05:45;;;;;;;12.47;6.70;;;;;;;13.99;65.49;102149.00;5091964;28;20204;-72
2021/09/21 09:08:13;;;;;;;7.80;6.80;;;;;;;14.08;64.74;102149.38;5098688;28;20200;-71
2021/09/21 09:10:40;;;;;;;8.37;6.03;;;;;;;14.16;64.19;102147.13;5099398;28;20229;-71
2021/09/21 09:13:18;;;;;;;7.73;6.10;;;;;;;14.24;64.16;102152.09;5095834;28;20200;-71
2021/09/21 09:15:54;;;;;;;7.63;5.97;;;;;;;14.35;64.02;102154.16;5094153;28;20220;-72
2021/09/21 09:18:26;;;;;;;9.67;6.57;;;;;;;14.44;63.48;102143.84;5086325;28;20235;-75
2021/09/21 09:20:55;;;;;;;9.73;5.93;;;;;;;14.52;63.07;102152.31;5091913;28;20311;-70
2021/09/21 09:23:22;;;;;;;6.17;5.57;;;;;;;14.58;62.74;102146.63;5083249;28;20205;-74
2021/09/21 09:25:50;;;;;;;8.67;5.97;;;;;;;14.64;62.55;102137.38;5081771;28;20659;-73
2021/09/21 09:28:17;;;;;;;8.00;6.17;;;;;;;14.73;62.21;102133.28;5079789;28;20200;-74
2021/09/21 09:30:44;;;;;;;7.20;5.47;;;;;;;14.78;61.80;102139.25;5083980;28;20255;-73
2021/09/21 09:33:11;;;;;;;7.10;5.17;;;;;;;14.80;61.37;102140.91;5077889;28;20204;-72
2021/09/21 09:35:40;;;;;;;6.20;4.60;;;;;;;14.83;60.83;102153.28;5081876;28;20287;-73
2021/09/21 09:38:10;;;;;;;8.30;4.80;;;;;;;14.86;60.98;102148.59;5082340;28;20224;-73
2021/09/21 09:40:40;;;;;;;6.27;4.87;;;;;;;14.91;61.22;102143.81;5081160;28;20236;-73
2021/09/21 09:43:07;;;;;;;5.63;4.60;;;;;;;14.98;60.67;102144.34;5083504;28;20230;-73
2021/09/21 09:45:37;;;;;;;7.33;4.80;;;;;;;15.04;60.55;102144.00;5080831;28;20674;-73
2021/09/21 09:48:04;;;;;;;5.87;4.67;;;;;;;15.13;60.52;102147.94;5078495;28;20209;-73
2021/09/21 09:50:36;;;;;;;7.30;5.07;;;;;;;15.22;60.41;102140.22;5083913;28;20416;-74
2021/09/21 09:53:09;;;;;;;6.33;4.63;;;;;;;15.34;60.28;102148.50;5085032;28;20200;-72
2021/09/21 09:55:36;;;;;;;6.53;5.00;;;;;;;15.44;59.50;102137.09;5078403;28;20678;-73
2021/09/21 09:58:04;;;;;;;5.23;4.73;;;;;;;15.55;59.55;102128.41;5080907;28;20578;-71
2021/09/21 10:00:30;;;;;;;5.83;5.23;;;;;;;15.66;59.46;102139.41;5078596;28;20232;-72
2021/09/21 10:02:57;;;;;;;7.20;5.13;;;;;;;15.73;59.05;102139.91;5082861;28;20212;-76
2021/09/21 10:05:24;;;;;;;7.13;4.93;;;;;;;15.77;58.51;102149.47;5081190;28;20214;-73
2021/09/21 10:07:51;;;;;;;5.43;4.60;;;;;;;15.80;58.34;102144.78;5073651;28;20288;-74
2021/09/21 10:10:18;;;;;;;5.67;4.60;;;;;;;15.88;58.12;102139.81;5081271;28;20619;-73
2021/09/21 10:12:46;;;;;;;7.47;4.97;;;;;;;15.94;57.54;102147.47;5083800;28;20209;-73
2021/09/21 10:15:13;;;;;;;7.43;5.40;;;;;;;16.01;57.35;102155.16;5080045;28;20612;-73
2021/09/21 10:17:49;;;;;;;5.17;4.57;;;;;;;16.08;57.06;102148.47;5086209;28;20248;-74
2021/09/21 10:20:16;;;;;;;7.00;4.43;;;;;;;16.16;56.77;102152.38;5088470;28;20233;-72
2021/09/21 10:22:52;;;;;;;7.33;4.97;;;;;;;16.24;56.66;102151.91;5087992;28;20220;-72
2021/09/21 10:25:28;;;;;;;5.60;4.67;;;;;;;16.29;56.25;102152.50;5089270;28;20202;-72
2021/09/21 10:27:55;;;;;;;4.93;3.90;;;;;;;16.34;55.87;102158.41;5084325;28;20564;-72
2021/09/21 10:30:24;;;;;;;6.37;4.43;;;;;;;16.41;55.41;102158.91;5080153;28;20225;-72
2021/09/21 10:32:52;;;;;;;6.27;3.93;;;;;;;16.45;55.10;102149.69;5088007;28;20205;-72
2021/09/21 10:35:21;;;;;;;5.87;4.10;;;;;;;16.47;55.06;102156.69;5086160;28;20745;-72
2021/09/21 10:37:58;;;;;;;5.83;3.90;;;;;;;16.52;54.93;102154.53;5086842;28;20202;-73
2021/09/21 10:40:37;;;;;;;6.10;4.10;;;;;;;16.55;54.68;102153.50;5091062;22;20243;-80
2021/09/21 10:43:04;;;;;;;4.53;4.13;;;;;;;16.57;54.59;102155.13;5060247;28;20235;-78
2021/09/21 10:45:30;;;;;;;5.87;3.87;;;;;;;16.64;54.54;102159.19;5061936;28;20299;-79
2021/09/21 10:48:05;;;;;;;5.13;4.03;;;;;;;16.69;54.42;102152.63;5060836;28;20287;-79
2021/09/21 10:50:38;;;;;;;4.27;3.47;;;;;;;16.72;53.84;102157.81;5056720;28;20210;-79
2021/09/21 10:53:06;;;;;;;4.47;3.77;;;;;;;16.72;53.25;102153.28;5058204;28;20209;-79
2021/09/21 10:55:38;;;;;;;5.50;3.30;;;;;;;16.72;52.93;102157.81;5059044;28;20199;-79
2021/09/21 10:58:06;;;;;;;3.93;3.17;;;;;;;16.75;52.88;102158.47;5053978;28;20229;-80
2021/09/21 11:00:34;;;;;;;3.40;2.80;;;;;;;16.79;52.46;102159.16;5057735;28;20208;-78
2021/09/21 11:03:02;;;;;;;4.83;3.00;;;;;;;16.84;52.56;102152.47;5055953;28;20206;-79
2021/09/21 11:05:29;;;;;;;5.30;3.00;;;;;;;16.92;52.28;102160.06;5063552;28;20282;-77
2021/09/21 11:07:57;;;;;;;9.77;2.97;;;;;;;16.96;51.47;102159.75;5057245;28;20199;-80
2021/09/21 11:10:27;;;;;;;3.00;2.53;;;;;;;17.00;51.05;102160.44;5063781;28;20245;-80
2021/09/21 11:12:56;;;;;;;4.30;2.60;;;;;;;17.04;51.04;102161.06;5056634;28;20197;-80
2021/09/21 11:15:26;;;;;;;6.63;2.90;;;;;;;17.07;50.86;102158.16;5063644;28;20588;-78
2021/09/21 11:18:02;;;;;;;4.40;2.60;;;;;;;17.14;51.45;102154.97;5060091;28;20212;-80
2021/09/21 11:20:29;;;;;;;2.97;2.67;;;;;;;17.19;50.87;102160.94;5059286;28;20220;-79
2021/09/21 11:23:01;;;;;;;8.50;3.40;;;;;;;17.22;51.01;102154.44;5050370;28;20240;-79
2021/09/21 11:25:30;;;;;;;4.90;2.90;;;;;;;17.23;50.85;102162.41;5058909;28;20200;-79
2021/09/21 11:27:58;;;;;;;4.07;2.77;;;;;;;17.24;50.34;102153.38;5055847;28;20231;-77
2021/09/21 11:30:25;;;;;;;3.47;2.50;;;;;;;17.25;50.58;102148.84;5059278;28;20580;-79
2021/09/21 11:32:52;;;;;;;4.87;2.53;;;;;;;17.27;50.49;102145.09;5056062;28;20209;-78